Capitol Logistics 314


KRFD
Chicago/Rockford International Airport
Rockford, Illinois, US
KAFW
Fort Worth Alliance Airport
Fort Worth, Texas, US

Activity Log

Date Flight Route Aircraft Duration
02/14/2020 CPX314 MZV J87 COODY HITUG TRUUK2 B763 2h 02m

Route Details

Aircraft Information
Primary: Boeing 767-300BDSF
Backup: Not Available
Route Data
Distance: 676nm
Sched. Duration: 1h 50m
Avg. Duration: 2h 02m (+53m)
Times Flown: 1
Recm'd Route: MZV J87 COODY HITUG TRUUK2
Planned Altitude: 34,000ft
Origin Wx: KRFD 272354Z 30009KT 10SM FEW038 FEW250 M03/M11 A3007 RMK AO2 SLP193 T10331111 10000 21033 53004
Dest. Wx: KAFW 272353Z 18008KT 10SM CLR 16/M06 A3020 RMK AO2 SLP231 T01561061 10172 20117 56009
Notes:

Financial History
Total Freight: 92,304lbs
Average Load: 92,304lbs/flt
Fuel Used: 20,272lbs
Avg. Fuel Used: 20,272lbs/flt
Fuel Expense: $15,001
Avg. Fuel Expense: $15,001
Avg. Fuel Cost: $0.74/lbs
Total Gross Income: $131,072
Pilot Pay: $229
Total Expenses: $14,208
Total Revenue: $101,398
Average Revenue: $131,071.68